FBKE

Kasane Airport

Kasane, Botswana
METAR FBKE 161000Z 08011KT 040V110 9999 BKN030 SCT070 28/18 Q1019
Observed Flight Rules
Dec-16 @ 10:00 UTC (5 hours ago) Marginal Visual Flight Rules
Wind Visibility Clouds
80° at 11 knots 10,000+ meters
  • Broken at 3,000' AGL
  • Scattered at 7,000' AGL
Temperatures Readings
Current 28°C / 82°F
Dewpoint 18°C / 64°F
Humidity 55%
Altimeter 30.09" Hg
Pressure 1019 hPa
Elevation 1000
METAR FBKE 161000Z 08011KT 040V110 9999 BKN030 SCT070 28/18 Q1019
Observed Flight Rules
Dec-16 @ 10:00 UTC
(5 hours ago)
MVFR
Wind Visibility
80° at 11 knots 10,000+ meters
Clouds
  • Broken at 3,000' AGL
  • Scattered at 7,000' AGL
Temperature Dewpoint
28°C / 82°F 18°C / 64°F
Humidity Altimeter Pressure
55% 30.09" Hg 1019 hPa